createdAt,value
2023-05-25T00:00:19.034Z,11.90
2023-05-25T00:02:46.555Z,11.90
2023-05-25T00:05:14.363Z,11.90
2023-05-25T00:07:41.531Z,11.90
2023-05-25T00:10:08.991Z,11.90
2023-05-25T00:12:37.730Z,11.80
2023-05-25T00:15:08.183Z,11.80
2023-05-25T00:17:37.262Z,11.90
2023-05-25T00:20:07.804Z,11.90
2023-05-25T00:22:38.385Z,11.90
2023-05-25T00:25:06.495Z,11.90
2023-05-25T00:27:33.479Z,11.90
2023-05-25T00:30:00.480Z,11.80
2023-05-25T00:32:27.500Z,11.80
2023-05-25T00:34:55.097Z,11.90
2023-05-25T00:37:22.903Z,11.80
2023-05-25T00:39:49.807Z,11.80
2023-05-25T00:42:16.666Z,11.80
2023-05-25T00:44:43.668Z,11.70
2023-05-25T00:47:11.865Z,11.70
2023-05-25T00:49:38.932Z,11.70
2023-05-25T00:52:06.249Z,11.70
2023-05-25T00:54:35.229Z,11.70
2023-05-25T00:57:04.821Z,11.60
2023-05-25T00:59:46.557Z,11.60
2023-05-25T01:02:17.055Z,11.60
2023-05-25T01:04:47.350Z,11.70
2023-05-25T01:07:19.045Z,11.50
2023-05-25T01:09:47.702Z,11.50
2023-05-25T01:12:16.428Z,11.60
2023-05-25T01:14:48.236Z,11.50
2023-05-25T01:17:15.932Z,11.40
2023-05-25T01:19:49.556Z,11.40
2023-05-25T01:22:28.985Z,11.40
2023-05-25T01:25:03.787Z,11.40
2023-05-25T01:27:43.639Z,11.40
2023-05-25T01:30:15.437Z,11.40
2023-05-25T01:32:43.747Z,11.40
2023-05-25T01:35:11.688Z,11.30
2023-05-25T01:37:45.025Z,11.30
2023-05-25T01:40:13.229Z,11.20
2023-05-25T01:42:40.334Z,11.20
2023-05-25T01:45:08.989Z,11.20
2023-05-25T01:48:03.527Z,11.20
2023-05-25T01:50:51.784Z,11.20
2023-05-25T01:53:22.864Z,11.20
2023-05-25T01:55:58.624Z,11.20
2023-05-25T01:58:27.430Z,11.30
2023-05-25T02:00:56.632Z,11.20
2023-05-25T02:03:23.682Z,11.20
2023-05-25T02:05:50.652Z,11.30
2023-05-25T02:08:17.897Z,11.30
2023-05-25T02:10:44.744Z,11.30
2023-05-25T02:13:11.717Z,11.20
2023-05-25T02:15:38.697Z,11.20
2023-05-25T02:18:08.583Z,11.20
2023-05-25T02:20:37.824Z,11.30
2023-05-25T02:23:04.912Z,11.30
2023-05-25T02:25:31.784Z,11.30
2023-05-25T02:27:58.669Z,11.30
2023-05-25T02:30:25.551Z,11.30
2023-05-25T02:32:53.974Z,11.30
2023-05-25T02:35:20.831Z,11.30
2023-05-25T02:37:50.274Z,11.20
2023-05-25T02:40:18.424Z,11.30
2023-05-25T02:42:45.347Z,11.30
2023-05-25T02:45:12.497Z,11.30
2023-05-25T02:47:39.530Z,11.30
2023-05-25T02:50:06.994Z,11.30
2023-05-25T02:52:33.891Z,11.30
2023-05-25T02:55:01.120Z,11.30
2023-05-25T02:57:29.129Z,11.30
2023-05-25T02:59:55.950Z,11.30
2023-05-25T03:02:25.662Z,11.20
2023-05-25T03:04:55.701Z,11.10
2023-05-25T03:07:22.645Z,11.10
2023-05-25T03:09:49.506Z,11.10
2023-05-25T03:12:16.447Z,11.10
2023-05-25T03:14:43.261Z,11.10
2023-05-25T03:17:10.379Z,11.10
2023-05-25T03:19:37.312Z,11.10
2023-05-25T03:22:04.536Z,11.20
2023-05-25T03:24:31.382Z,11.10
2023-05-25T03:26:58.241Z,11.20
2023-05-25T03:29:25.069Z,11.20
2023-05-25T03:31:51.915Z,11.20
2023-05-25T03:34:18.957Z,11.20
2023-05-25T03:36:47.523Z,11.20
2023-05-25T03:39:14.436Z,11.30
2023-05-25T03:41:43.039Z,11.30
2023-05-25T03:44:10.865Z,11.30
2023-05-25T03:46:38.349Z,11.30
2023-05-25T03:49:05.779Z,11.30
2023-05-25T03:51:32.666Z,11.30
2023-05-25T03:53:59.473Z,11.30
2023-05-25T03:56:26.398Z,11.30
2023-05-25T03:58:53.269Z,11.30
2023-05-25T04:01:20.682Z,11.40
2023-05-25T04:03:47.664Z,11.40
2023-05-25T04:06:19.859Z,11.30
2023-05-25T04:08:47.918Z,11.30
2023-05-25T04:11:14.779Z,11.30
2023-05-25T04:13:41.620Z,11.40
2023-05-25T04:16:09.644Z,11.50
2023-05-25T04:18:36.714Z,11.50
2023-05-25T04:21:03.769Z,11.50
2023-05-25T04:23:31.252Z,11.50
2023-05-25T04:25:58.620Z,11.60
2023-05-25T04:28:25.675Z,11.60
2023-05-25T04:30:56.870Z,11.60
2023-05-25T04:33:24.663Z,11.60
2023-05-25T04:35:51.689Z,11.60
2023-05-25T04:38:18.636Z,11.70
2023-05-25T04:40:46.461Z,11.60
2023-05-25T04:43:13.779Z,11.70
2023-05-25T04:45:40.787Z,11.60
2023-05-25T04:48:07.794Z,11.80
2023-05-25T04:50:34.718Z,11.70
2023-05-25T04:53:01.545Z,11.80
2023-05-25T04:55:28.683Z,11.80
2023-05-25T04:57:55.526Z,11.80
2023-05-25T05:00:22.475Z,11.80
2023-05-25T05:02:50.058Z,11.90
2023-05-25T05:05:17.899Z,11.80
2023-05-25T05:07:44.897Z,11.90
2023-05-25T05:10:11.818Z,11.90
2023-05-25T05:12:38.650Z,11.90
2023-05-25T05:15:06.092Z,12.10
2023-05-25T05:17:33.264Z,12.10
2023-05-25T05:20:00.458Z,12.10
2023-05-25T05:22:27.457Z,12.10
2023-05-25T05:24:57.469Z,12.10
2023-05-25T05:27:26.175Z,12.30
2023-05-25T05:29:53.170Z,12.40
2023-05-25T05:32:21.075Z,12.40
2023-05-25T05:34:49.222Z,12.50
2023-05-25T05:37:16.147Z,12.50
2023-05-25T05:39:43.048Z,12.60
2023-05-25T05:42:09.894Z,12.60
2023-05-25T05:44:37.061Z,12.70
2023-05-25T05:47:04.405Z,12.80
2023-05-25T05:49:31.915Z,12.90
2023-05-25T05:51:59.293Z,12.90
2023-05-25T05:54:28.027Z,13.10
2023-05-25T05:56:55.174Z,13.20
2023-05-25T05:59:22.488Z,13.20
2023-05-25T06:01:49.678Z,13.30
2023-05-25T06:04:18.936Z,13.30
2023-05-25T06:06:46.173Z,13.40
2023-05-25T06:09:13.768Z,13.40
2023-05-25T06:11:40.667Z,13.50
2023-05-25T06:14:07.539Z,13.60
2023-05-25T06:16:34.459Z,13.70
2023-05-25T06:19:01.513Z,13.90
2023-05-25T06:21:28.504Z,14.10
2023-05-25T06:23:57.777Z,14.10
2023-05-25T06:26:25.009Z,14.20
2023-05-25T06:28:51.976Z,14.30
2023-05-25T06:31:19.165Z,14.30
2023-05-25T06:33:46.159Z,14.40
2023-05-25T06:36:15.830Z,14.50
2023-05-25T06:38:43.063Z,14.50
2023-05-25T06:41:12.820Z,14.70
2023-05-25T06:43:39.765Z,14.70
2023-05-25T06:46:06.710Z,14.60
2023-05-25T06:48:33.598Z,14.60
2023-05-25T06:51:00.645Z,14.70
2023-05-25T06:53:27.569Z,14.60
2023-05-25T06:55:54.474Z,14.70
2023-05-25T06:58:21.312Z,14.80
2023-05-25T07:00:48.190Z,14.80
2023-05-25T07:03:15.132Z,14.90
2023-05-25T07:05:42.549Z,15.10
2023-05-25T07:08:09.587Z,15.10
2023-05-25T07:10:36.428Z,15.30
2023-05-25T07:13:03.272Z,15.30
2023-05-25T07:15:30.360Z,15.50
2023-05-25T07:17:57.438Z,15.40
2023-05-25T07:20:24.649Z,15.40
2023-05-25T07:22:53.305Z,15.50
2023-05-25T07:25:20.268Z,15.50
2023-05-25T07:27:50.475Z,15.60
2023-05-25T07:30:17.422Z,15.70
2023-05-25T07:32:44.337Z,15.70
2023-05-25T07:35:11.235Z,15.90
2023-05-25T07:37:38.130Z,15.90
2023-05-25T07:40:06.148Z,15.80
2023-05-25T07:42:34.516Z,15.90
2023-05-25T07:45:02.092Z,15.80
2023-05-25T07:47:29.609Z,15.90
2023-05-25T07:49:56.668Z,15.90
2023-05-25T07:52:23.515Z,15.90
2023-05-25T07:54:50.419Z,16.20
2023-05-25T07:57:17.296Z,16.30
2023-05-25T07:59:44.900Z,16.20
2023-05-25T08:02:12.106Z,16.20
2023-05-25T08:04:39.104Z,16.40
2023-05-25T08:07:06.304Z,16.60
2023-05-25T08:09:33.141Z,16.70
2023-05-25T08:12:14.971Z,16.90
2023-05-25T08:14:47.026Z,16.80
2023-05-25T08:17:13.971Z,16.80
2023-05-25T08:19:40.912Z,16.80
2023-05-25T08:22:07.871Z,17.00
2023-05-25T08:24:34.706Z,17.30
2023-05-25T08:27:02.046Z,17.30
2023-05-25T08:29:29.178Z,17.40
2023-05-25T08:31:56.021Z,17.20
2023-05-25T08:34:23.036Z,17.20
2023-05-25T08:36:50.197Z,17.30
2023-05-25T08:39:17.069Z,17.40
2023-05-25T08:41:45.224Z,17.50
2023-05-25T08:44:14.278Z,17.40
2023-05-25T08:46:41.539Z,17.60
2023-05-25T08:49:13.389Z,17.80
2023-05-25T08:51:51.307Z,17.80
2023-05-25T08:54:34.174Z,17.70
2023-05-25T08:57:13.235Z,17.80
2023-05-25T08:59:40.031Z,18.10
2023-05-25T09:02:30.621Z,17.90
2023-05-25T09:05:01.355Z,17.80
2023-05-25T09:07:29.473Z,18.00
2023-05-25T09:09:57.757Z,18.30
2023-05-25T09:12:25.125Z,18.40
2023-05-25T09:14:53.882Z,18.60
2023-05-25T09:17:21.338Z,18.70
2023-05-25T09:19:48.356Z,18.80
2023-05-25T09:22:16.702Z,18.80
2023-05-25T09:24:45.181Z,18.80
2023-05-25T09:27:13.734Z,18.90
2023-05-25T09:29:40.931Z,18.90
2023-05-25T09:32:08.168Z,18.70
2023-05-25T09:34:35.520Z,18.60
2023-05-25T09:37:16.762Z,18.70
2023-05-25T09:39:44.582Z,18.90
2023-05-25T09:42:12.054Z,18.80
2023-05-25T09:44:42.722Z,18.90
2023-05-25T09:47:09.730Z,19.10
2023-05-25T09:49:36.900Z,19.30
2023-05-25T09:52:03.939Z,19.50
2023-05-25T09:54:31.252Z,19.60
2023-05-25T09:56:59.810Z,19.70
2023-05-25T09:59:27.581Z,19.70
2023-05-25T10:01:54.703Z,19.50
2023-05-25T10:04:21.716Z,19.40
2023-05-25T10:06:52.148Z,19.50
2023-05-25T10:09:20.191Z,19.60
2023-05-25T10:11:51.278Z,19.80
2023-05-25T10:14:27.120Z,19.90
2023-05-25T10:16:58.136Z,19.80
2023-05-25T10:19:59.673Z,19.80
2023-05-25T10:22:40.111Z,19.80
2023-05-25T10:25:25.886Z,19.80
2023-05-25T10:28:27.253Z,19.90
2023-05-25T10:30:57.829Z,20.10
2023-05-25T10:33:25.151Z,20.30
2023-05-25T10:36:02.927Z,20.50
2023-05-25T10:38:39.263Z,20.60
2023-05-25T10:41:08.827Z,20.50
2023-05-25T10:43:36.182Z,20.80
2023-05-25T10:46:04.379Z,21.10
2023-05-25T10:48:51.925Z,21.30
2023-05-25T10:51:22.244Z,21.20
2023-05-25T10:54:00.017Z,21.40
2023-05-25T10:56:26.839Z,21.30
2023-05-25T10:58:53.741Z,21.00
2023-05-25T11:01:20.794Z,21.10
2023-05-25T11:03:56.289Z,21.00
2023-05-25T11:06:44.145Z,21.30
2023-05-25T11:09:28.434Z,21.20
2023-05-25T11:12:01.886Z,21.30
2023-05-25T11:14:37.124Z,21.50
2023-05-25T11:17:03.938Z,21.60
2023-05-25T11:19:40.230Z,21.50
2023-05-25T11:22:30.916Z,21.70
2023-05-25T11:24:59.740Z,21.80
2023-05-25T11:27:30.970Z,21.90
2023-05-25T11:29:59.256Z,21.90
2023-05-25T11:32:27.413Z,21.90
2023-05-25T11:34:57.176Z,22.00
2023-05-25T11:37:26.353Z,22.20
2023-05-25T11:39:53.649Z,22.70
2023-05-25T11:42:22.339Z,22.70
2023-05-25T11:44:49.426Z,22.80
2023-05-25T11:47:22.695Z,22.80
2023-05-25T11:49:50.017Z,23.20
2023-05-25T11:52:18.841Z,23.60
2023-05-25T11:54:46.647Z,23.80
2023-05-25T11:57:27.005Z,24.00
2023-05-25T11:59:55.141Z,23.50
2023-05-25T12:02:23.065Z,23.20
2023-05-25T12:05:11.125Z,23.60
2023-05-25T12:07:44.574Z,23.80
2023-05-25T12:10:13.350Z,24.10
2023-05-25T12:12:51.097Z,24.30
2023-05-25T12:15:25.149Z,24.30
2023-05-25T12:17:53.809Z,24.40
2023-05-25T12:20:21.926Z,23.90
2023-05-25T12:22:49.068Z,23.80
2023-05-25T12:25:21.008Z,23.80
2023-05-25T12:27:47.912Z,23.80
2023-05-25T12:30:14.850Z,24.20
2023-05-25T12:33:04.907Z,24.30
2023-05-25T12:35:48.320Z,24.50
2023-05-25T12:38:18.339Z,25.00
2023-05-25T12:40:45.474Z,25.70
2023-05-25T12:43:13.242Z,25.80
2023-05-25T12:45:43.974Z,26.10
2023-05-25T12:48:11.079Z,26.30
2023-05-25T12:50:38.240Z,26.80
2023-05-25T12:53:05.579Z,27.10
2023-05-25T12:55:35.460Z,27.60
2023-05-25T12:58:07.477Z,27.40
2023-05-25T13:00:40.210Z,27.80
2023-05-25T13:03:10.708Z,27.90
2023-05-25T13:05:38.365Z,28.00
2023-05-25T13:08:06.189Z,29.10
2023-05-25T13:10:33.886Z,29.10
2023-05-25T13:13:01.126Z,29.50
2023-05-25T13:15:28.963Z,29.10
2023-05-25T13:17:58.485Z,28.70
2023-05-25T13:20:26.676Z,28.80
2023-05-25T13:22:55.828Z,28.70
2023-05-25T13:25:23.189Z,28.80
2023-05-25T13:27:51.569Z,29.10
2023-05-25T13:30:20.688Z,29.20
2023-05-25T13:32:50.322Z,28.70
2023-05-25T13:35:22.925Z,28.80
2023-05-25T13:37:50.975Z,28.60
2023-05-25T13:40:17.907Z,28.80
2023-05-25T13:42:44.777Z,29.70
2023-05-25T13:45:11.672Z,30.40
2023-05-25T13:47:38.783Z,31.10
2023-05-25T13:50:06.345Z,31.10
2023-05-25T13:52:33.236Z,31.00
2023-05-25T13:55:00.056Z,30.00
2023-05-25T13:57:27.161Z,29.40
2023-05-25T13:59:54.051Z,30.20
2023-05-25T14:02:20.965Z,30.80
2023-05-25T14:04:47.944Z,31.00
2023-05-25T14:07:14.806Z,31.30
2023-05-25T14:09:41.679Z,31.30
2023-05-25T14:12:08.610Z,31.30
2023-05-25T14:14:35.563Z,30.90
2023-05-25T14:17:02.607Z,30.70
2023-05-25T14:19:29.726Z,30.40
2023-05-25T14:24:26.387Z,31.80
2023-05-25T14:26:53.207Z,32.40
2023-05-25T14:29:20.079Z,32.50
2023-05-25T14:31:47.145Z,31.90
2023-05-25T14:34:13.978Z,30.70
2023-05-25T14:36:40.788Z,30.10
2023-05-25T14:39:08.350Z,30.30
2023-05-25T14:41:35.984Z,30.40
2023-05-25T14:44:03.039Z,30.70
2023-05-25T14:46:30.000Z,31.30
2023-05-25T14:48:56.915Z,31.50
2023-05-25T14:51:25.537Z,31.30
2023-05-25T14:53:53.364Z,30.70
2023-05-25T14:56:24.786Z,30.80
2023-05-25T14:58:51.675Z,30.20
2023-05-25T15:01:18.536Z,29.90
2023-05-25T15:03:45.596Z,30.10
2023-05-25T15:06:12.524Z,30.50
2023-05-25T15:08:39.366Z,30.60
2023-05-25T15:11:08.076Z,30.50
2023-05-25T15:13:34.898Z,31.20
2023-05-25T15:16:01.767Z,30.90
2023-05-25T15:18:28.862Z,30.50
2023-05-25T15:20:57.950Z,29.90
2023-05-25T15:23:24.825Z,29.90
2023-05-25T15:25:51.669Z,30.90
2023-05-25T15:28:18.601Z,31.50
2023-05-25T15:30:45.572Z,31.10
2023-05-25T15:33:13.929Z,31.40
2023-05-25T15:35:41.061Z,30.30
2023-05-25T15:38:07.914Z,29.50
2023-05-25T15:40:37.019Z,29.10
2023-05-25T15:43:04.011Z,30.30
2023-05-25T15:45:31.125Z,29.90
2023-05-25T15:47:58.051Z,30.30
2023-05-25T15:50:24.982Z,29.30
2023-05-25T15:52:51.933Z,28.60
2023-05-25T15:55:18.907Z,28.60
2023-05-25T15:57:45.766Z,28.50
2023-05-25T16:00:13.322Z,28.90
2023-05-25T16:02:40.565Z,29.30
2023-05-25T16:05:09.567Z,29.00
2023-05-25T16:07:36.866Z,29.50
2023-05-25T16:10:03.950Z,29.50
2023-05-25T16:12:30.969Z,30.30
2023-05-25T16:14:57.847Z,29.90
2023-05-25T16:17:25.053Z,29.40
2023-05-25T16:19:52.030Z,29.30
2023-05-25T16:22:19.245Z,29.20
2023-05-25T16:24:46.098Z,29.10
2023-05-25T16:27:12.966Z,29.90
2023-05-25T16:29:39.823Z,30.60
2023-05-25T16:32:06.803Z,30.80
2023-05-25T16:34:33.743Z,29.70
2023-05-25T16:37:00.578Z,30.00
2023-05-25T16:39:27.418Z,30.40
2023-05-25T16:41:54.394Z,30.30
2023-05-25T16:44:21.280Z,30.00
2023-05-25T16:46:48.155Z,30.00
2023-05-25T16:49:15.055Z,30.00
2023-05-25T16:51:41.913Z,30.20
2023-05-25T16:54:08.756Z,30.20
2023-05-25T16:56:35.964Z,29.50
2023-05-25T16:59:02.835Z,29.60
2023-05-25T17:01:29.878Z,29.50
2023-05-25T17:03:56.886Z,29.30
2023-05-25T17:06:24.512Z,29.40
2023-05-25T17:08:51.386Z,29.10
2023-05-25T17:11:18.214Z,28.30
2023-05-25T17:13:45.023Z,28.30
2023-05-25T17:16:11.906Z,28.10
2023-05-25T17:18:38.979Z,27.60
2023-05-25T17:21:05.930Z,26.60
2023-05-25T17:23:32.732Z,25.80
2023-05-25T17:25:59.556Z,25.20
2023-05-25T17:28:27.643Z,24.60
2023-05-25T17:30:56.587Z,24.00
2023-05-25T17:33:23.578Z,23.30
2023-05-25T17:35:50.539Z,22.90
2023-05-25T17:38:17.493Z,22.70
2023-05-25T17:40:44.318Z,22.40
2023-05-25T17:43:11.235Z,22.40
2023-05-25T17:45:38.136Z,22.40
2023-05-25T17:48:05.203Z,22.50
2023-05-25T17:50:32.176Z,22.60
2023-05-25T17:52:59.002Z,22.50
2023-05-25T17:55:25.816Z,22.60
2023-05-25T17:57:52.673Z,22.50
2023-05-25T18:00:22.853Z,22.40
2023-05-25T18:02:51.630Z,22.20
2023-05-25T18:05:18.960Z,22.20
2023-05-25T18:07:45.812Z,22.20
2023-05-25T18:10:14.542Z,21.90
2023-05-25T18:12:41.611Z,21.60
2023-05-25T18:15:08.970Z,21.60
2023-05-25T18:17:35.866Z,21.60
2023-05-25T18:20:02.910Z,21.60
2023-05-25T18:22:30.051Z,21.20
2023-05-25T18:24:56.880Z,21.30
2023-05-25T18:27:23.809Z,21.30
2023-05-25T18:29:50.725Z,21.10
2023-05-25T18:32:17.558Z,20.80
2023-05-25T18:34:45.130Z,20.30
2023-05-25T18:37:12.057Z,19.80
2023-05-25T18:39:38.976Z,19.70
2023-05-25T18:42:06.223Z,19.40
2023-05-25T18:44:33.334Z,19.10
2023-05-25T18:47:00.281Z,18.90
2023-05-25T18:49:32.671Z,18.80
2023-05-25T18:51:59.854Z,18.50
2023-05-25T18:54:27.140Z,18.30
2023-05-25T18:56:53.989Z,18.00
2023-05-25T18:59:21.068Z,17.70
2023-05-25T19:01:47.974Z,17.50
2023-05-25T19:04:14.984Z,17.50
2023-05-25T19:06:41.967Z,17.20
2023-05-25T19:09:08.838Z,17.00
2023-05-25T19:11:36.223Z,16.80
2023-05-25T19:14:03.147Z,16.60
2023-05-25T19:16:30.153Z,16.60
2023-05-25T19:18:57.018Z,16.60
2023-05-25T19:21:24.136Z,16.30
2023-05-25T19:23:51.756Z,16.30
2023-05-25T19:26:18.826Z,16.30
2023-05-25T19:28:45.664Z,16.30
2023-05-25T19:31:12.717Z,16.10
2023-05-25T19:33:39.688Z,16.10
2023-05-25T19:36:06.603Z,16.10
2023-05-25T19:38:41.346Z,16.00
2023-05-25T19:41:09.183Z,16.00
2023-05-25T19:43:36.176Z,15.50
2023-05-25T19:46:03.757Z,15.40
2023-05-25T19:48:31.195Z,15.30
2023-05-25T19:50:58.090Z,15.20
2023-05-25T19:53:24.969Z,15.10
2023-05-25T19:55:51.956Z,15.10
2023-05-25T19:58:18.837Z,14.80
2023-05-25T20:00:45.824Z,14.80
2023-05-25T20:03:12.844Z,14.80
2023-05-25T20:05:40.180Z,14.70
2023-05-25T20:08:07.029Z,14.40
2023-05-25T20:10:38.917Z,14.40
2023-05-25T20:13:07.371Z,14.20
2023-05-25T20:15:34.504Z,14.00
2023-05-25T20:18:02.394Z,14.20
2023-05-25T20:20:29.444Z,14.30
2023-05-25T20:22:56.494Z,14.20
2023-05-25T20:25:23.377Z,14.10
2023-05-25T20:27:50.232Z,13.90
2023-05-25T20:30:17.332Z,13.70
2023-05-25T20:32:44.273Z,13.50
2023-05-25T20:35:11.817Z,13.30
2023-05-25T20:37:38.778Z,13.40
2023-05-25T20:40:06.732Z,13.50
2023-05-25T20:42:33.643Z,13.60
2023-05-25T20:45:00.886Z,13.50
2023-05-25T20:47:27.729Z,13.60
2023-05-25T20:49:54.617Z,13.40
2023-05-25T20:52:22.759Z,13.30
2023-05-25T20:54:49.604Z,13.30
2023-05-25T20:57:16.580Z,13.40
2023-05-25T20:59:43.462Z,13.40
2023-05-25T21:02:10.552Z,13.30
2023-05-25T21:04:37.443Z,13.20
2023-05-25T21:07:04.483Z,12.90
2023-05-25T21:09:31.362Z,12.80
2023-05-25T21:11:59.122Z,12.90
2023-05-25T21:14:25.970Z,12.80
2023-05-25T21:16:52.921Z,12.80
2023-05-25T21:19:19.827Z,12.60
2023-05-25T21:21:46.694Z,12.80
2023-05-25T21:24:13.573Z,12.70
2023-05-25T21:26:40.475Z,12.60
2023-05-25T21:29:07.763Z,12.40
2023-05-25T21:31:35.161Z,12.30
2023-05-25T21:34:02.096Z,12.20
2023-05-25T21:36:29.421Z,12.30
2023-05-25T21:38:56.353Z,12.40
2023-05-25T21:41:23.413Z,12.50
2023-05-25T21:43:50.789Z,12.40
2023-05-25T21:46:17.668Z,12.40
2023-05-25T21:48:44.536Z,12.40
2023-05-25T21:51:11.421Z,12.40
2023-05-25T21:53:38.270Z,12.40
2023-05-25T21:56:05.169Z,12.40
2023-05-25T21:58:31.994Z,12.40
2023-05-25T22:00:59.149Z,12.30
2023-05-25T22:03:26.163Z,12.30
2023-05-25T22:05:53.107Z,12.20
2023-05-25T22:08:19.975Z,12.20
2023-05-25T22:10:46.915Z,12.10
2023-05-25T22:13:13.787Z,12.10
2023-05-25T22:15:40.662Z,12.10
2023-05-25T22:18:07.580Z,11.80
2023-05-25T22:20:38.355Z,11.80
2023-05-25T22:23:06.003Z,11.60
2023-05-25T22:25:32.875Z,11.50
2023-05-25T22:27:59.717Z,11.50
2023-05-25T22:30:26.547Z,11.70
2023-05-25T22:32:53.554Z,11.60
2023-05-25T22:35:20.562Z,11.70
2023-05-25T22:37:47.413Z,11.60
2023-05-25T22:40:14.315Z,11.70
2023-05-25T22:42:41.173Z,11.70
2023-05-25T22:45:08.541Z,11.60
2023-05-25T22:47:35.756Z,11.70
2023-05-25T22:50:02.637Z,11.60
2023-05-25T22:52:30.003Z,11.50
2023-05-25T22:54:56.831Z,11.50
2023-05-25T22:57:23.645Z,11.40
2023-05-25T22:59:50.469Z,11.40
2023-05-25T23:02:17.486Z,11.40
2023-05-25T23:04:44.535Z,11.40
2023-05-25T23:07:11.600Z,11.30
2023-05-25T23:09:38.506Z,11.30
2023-05-25T23:12:06.274Z,11.30
2023-05-25T23:14:35.686Z,11.30
2023-05-25T23:17:02.616Z,11.20
2023-05-25T23:19:29.534Z,11.20
2023-05-25T23:21:58.495Z,11.10
2023-05-25T23:24:25.497Z,11.20
2023-05-25T23:26:53.019Z,11.00
2023-05-25T23:29:19.949Z,11.00
2023-05-25T23:31:47.758Z,10.90
2023-05-25T23:34:14.951Z,10.90
2023-05-25T23:36:42.762Z,10.90
2023-05-25T23:39:09.684Z,10.90
2023-05-25T23:41:36.521Z,10.80
2023-05-25T23:44:03.397Z,10.80
2023-05-25T23:46:31.799Z,10.80
2023-05-25T23:48:58.752Z,10.80
2023-05-25T23:51:25.879Z,10.80
2023-05-25T23:53:52.700Z,10.70
2023-05-25T23:56:20.743Z,10.60
2023-05-25T23:58:47.679Z,10.60
